RKTH/KPO METAR and TAF weather

Enter ICAO airport designator
Station Type Date Time Source
RKTH METAR 2018/08/05 18:00 UTC NOAA

RKTH 051800Z 18003KT CAVOK 29/24 Q1006 NOSIG


Station Type Date Time Source
RKTH Decoded METAR 2018/08/05 18:00 UTC NOAA

Pohang Ab, Korea, South (RKTH) 35-59N 129-25E 20M
Aug 05, 2018 - 02:00 PM EDT / 2018.08.05 1800 UTC
Wind: from the S (180 degrees) at 3 MPH (3 KT):0
Visibility: greater than 7 mile(s):0
Temperature: 84 F (29 C)
Dew Point: 75 F (24 C)
Relative Humidity: 74%
Pressure (altimeter): 29.71 in. Hg (1006 hPa)
ob: RKTH 051800Z 18003KT CAVOK 29/24 Q1006 NOSIG
cycle: 18

Station Type Date Time Source
RKTH TAF 2018/08/06 12:57 UTC NOAA

TAF RKTH 061100Z 0612/0718 03006KT 8000 SCT010 BKN020 TX31/0706Z TN25/0718Z
BECMG 0623/0700 03010KT
BECMG 0711/0712 03006KT
BECMG 0614/0615 SCT015 BKN030


Example: see airport list